createdAt,value
2022-08-17T00:00:43.005Z,21.80
2022-08-17T00:03:10.006Z,21.80
2022-08-17T00:05:42.009Z,21.80
2022-08-17T00:08:12.020Z,21.70
2022-08-17T00:10:40.875Z,21.70
2022-08-17T00:13:10.589Z,21.80
2022-08-17T00:15:38.694Z,21.80
2022-08-17T00:19:02.183Z,21.70
2022-08-17T00:20:55.690Z,21.80
2022-08-17T00:23:25.771Z,21.70
2022-08-17T00:25:55.754Z,21.70
2022-08-17T00:28:24.092Z,21.70
2022-08-17T00:30:53.813Z,21.70
2022-08-17T00:33:25.914Z,21.70
2022-08-17T00:35:55.206Z,21.70
2022-08-17T00:38:25.400Z,21.70
2022-08-17T00:40:59.034Z,21.70
2022-08-17T00:43:31.599Z,21.70
2022-08-17T00:46:00.985Z,21.70
2022-08-17T00:48:30.750Z,21.70
2022-08-17T00:51:06.444Z,21.70
2022-08-17T00:53:39.685Z,21.70
2022-08-17T00:56:11.813Z,21.70
2022-08-17T00:58:40.116Z,21.70
2022-08-17T01:01:09.390Z,21.70
2022-08-17T01:03:39.748Z,21.70
2022-08-17T01:06:10.131Z,21.70
2022-08-17T01:08:40.535Z,21.60
2022-08-17T01:11:09.209Z,21.60
2022-08-17T01:13:43.171Z,21.60
2022-08-17T01:16:17.105Z,21.60
2022-08-17T01:18:47.897Z,21.60
2022-08-17T01:21:23.274Z,21.60
2022-08-17T01:23:52.949Z,21.60
2022-08-17T01:26:21.845Z,21.60
2022-08-17T01:28:54.223Z,21.60
2022-08-17T01:31:25.232Z,21.60
2022-08-17T01:33:53.909Z,21.60
2022-08-17T01:36:21.954Z,21.50
2022-08-17T01:38:49.978Z,21.60
2022-08-17T01:41:22.242Z,21.50
2022-08-17T01:43:53.093Z,21.60
2022-08-17T01:46:26.719Z,21.50
2022-08-17T01:48:55.099Z,21.60
2022-08-17T01:51:23.650Z,21.60
2022-08-17T01:53:55.066Z,21.60
2022-08-17T01:56:26.913Z,21.60
2022-08-17T01:58:55.327Z,21.60
2022-08-17T02:01:27.030Z,21.50
2022-08-17T02:04:00.611Z,21.50
2022-08-17T02:06:31.414Z,21.50
2022-08-17T02:09:16.852Z,21.50
2022-08-17T02:11:46.889Z,21.50
2022-08-17T02:14:15.529Z,21.50
2022-08-17T02:16:43.545Z,21.50
2022-08-17T02:19:14.885Z,21.50
2022-08-17T02:21:44.936Z,21.50
2022-08-17T02:24:16.701Z,21.50
2022-08-17T02:26:46.890Z,21.50
2022-08-17T02:29:15.829Z,21.50
2022-08-17T02:31:44.709Z,21.50
2022-08-17T02:34:12.682Z,21.50
2022-08-17T02:36:40.671Z,21.50
2022-08-17T02:39:11.908Z,21.50
2022-08-17T02:41:40.885Z,21.50
2022-08-17T02:44:10.197Z,21.50
2022-08-17T02:46:38.261Z,21.50
2022-08-17T02:49:06.642Z,21.50
2022-08-17T02:51:35.325Z,21.40
2022-08-17T02:54:40.076Z,21.50
2022-08-17T02:56:51.330Z,21.40
2022-08-17T02:59:20.591Z,21.50
2022-08-17T03:01:48.627Z,21.40
2022-08-17T03:04:16.635Z,21.40
2022-08-17T03:06:44.621Z,21.40
2022-08-17T03:09:13.375Z,21.40
2022-08-17T03:11:41.369Z,21.40
2022-08-17T03:14:09.327Z,21.40
2022-08-17T03:16:38.646Z,21.40
2022-08-17T03:19:07.247Z,21.40
2022-08-17T03:21:35.338Z,21.30
2022-08-17T03:24:08.685Z,21.40
2022-08-17T03:26:37.613Z,21.30
2022-08-17T03:29:05.509Z,21.30
2022-08-17T03:31:33.544Z,21.30
2022-08-17T03:34:06.332Z,21.30
2022-08-17T03:36:36.223Z,21.30
2022-08-17T03:39:05.355Z,21.30
2022-08-17T03:41:33.318Z,21.30
2022-08-17T03:44:01.286Z,21.20
2022-08-17T03:46:46.643Z,21.20
2022-08-17T03:49:41.679Z,21.30
2022-08-17T03:52:27.252Z,21.20
2022-08-17T03:55:12.838Z,21.20
2022-08-17T03:57:41.034Z,21.20
2022-08-17T04:00:09.870Z,21.20
2022-08-17T04:02:37.801Z,21.20
2022-08-17T04:05:07.885Z,21.20
2022-08-17T04:07:36.110Z,21.10
2022-08-17T04:10:04.406Z,21.10
2022-08-17T04:12:44.766Z,21.10
2022-08-17T04:15:13.817Z,21.10
2022-08-17T04:17:42.769Z,21.10
2022-08-17T04:20:13.532Z,21.10
2022-08-17T04:22:41.560Z,21.10
2022-08-17T04:25:15.563Z,21.10
2022-08-17T04:27:43.682Z,21.10
2022-08-17T04:30:13.011Z,21.10
2022-08-17T04:33:10.648Z,21.10
2022-08-17T04:35:41.809Z,21.10
2022-08-17T04:38:11.935Z,21.10
2022-08-17T04:40:57.963Z,21.10
2022-08-17T04:43:28.454Z,21.00
2022-08-17T04:45:58.458Z,21.00
2022-08-17T04:48:35.647Z,21.00
2022-08-17T04:51:10.266Z,21.00
2022-08-17T04:53:39.517Z,21.00
2022-08-17T04:56:08.035Z,21.00
2022-08-17T04:58:44.946Z,21.00
2022-08-17T05:01:13.568Z,21.00
2022-08-17T05:03:42.339Z,21.00
2022-08-17T05:06:12.031Z,21.00
2022-08-17T05:08:40.761Z,21.00
2022-08-17T05:11:08.960Z,21.00
2022-08-17T05:13:36.954Z,21.00
2022-08-17T05:16:09.046Z,21.00
2022-08-17T05:18:38.837Z,21.00
2022-08-17T05:21:07.722Z,21.00
2022-08-17T05:23:43.099Z,21.00
2022-08-17T05:26:22.562Z,21.00
2022-08-17T05:28:57.268Z,21.00
2022-08-17T05:31:28.245Z,21.00
2022-08-17T05:33:56.220Z,21.00
2022-08-17T05:36:43.542Z,21.00
2022-08-17T05:39:16.919Z,21.00
2022-08-17T05:41:47.102Z,20.90
2022-08-17T05:44:15.178Z,20.90
2022-08-17T05:46:46.557Z,20.90
2022-08-17T05:49:17.974Z,20.90
2022-08-17T05:52:09.324Z,20.90
2022-08-17T05:54:52.194Z,20.90
2022-08-17T05:57:52.901Z,21.00
2022-08-17T06:00:30.119Z,20.90
2022-08-17T06:03:16.453Z,20.90
2022-08-17T06:06:01.244Z,20.90
2022-08-17T06:08:35.857Z,20.90
2022-08-17T06:11:15.828Z,20.90
2022-08-17T06:14:00.814Z,20.90
2022-08-17T06:16:36.809Z,20.90
2022-08-17T06:19:10.986Z,20.90
2022-08-17T06:21:42.468Z,20.90
2022-08-17T06:24:27.611Z,20.90
2022-08-17T06:27:02.451Z,20.90
2022-08-17T06:29:42.130Z,20.90
2022-08-17T06:32:12.860Z,21.00
2022-08-17T06:34:42.369Z,21.00
2022-08-17T06:37:27.422Z,21.00
2022-08-17T06:40:07.177Z,21.00
2022-08-17T06:42:54.687Z,21.00
2022-08-17T06:45:39.834Z,21.00
2022-08-17T06:48:13.957Z,21.00
2022-08-17T06:50:48.691Z,21.10
2022-08-17T06:53:23.369Z,21.10
2022-08-17T06:55:56.895Z,21.10
2022-08-17T06:58:29.700Z,21.10
2022-08-17T07:01:00.991Z,21.10
2022-08-17T07:03:37.948Z,21.20
2022-08-17T07:06:12.000Z,21.20
2022-08-17T07:08:50.236Z,21.20
2022-08-17T07:11:24.650Z,21.20
2022-08-17T07:14:04.213Z,21.20
2022-08-17T07:16:36.844Z,21.20
2022-08-17T07:19:07.281Z,21.20
2022-08-17T07:21:45.971Z,21.20
2022-08-17T07:24:33.108Z,21.20
2022-08-17T07:27:10.700Z,21.30
2022-08-17T07:29:46.792Z,21.30
2022-08-17T07:32:18.572Z,21.30
2022-08-17T07:35:11.445Z,21.30
2022-08-17T07:37:41.264Z,21.30
2022-08-17T07:40:26.922Z,21.40
2022-08-17T07:43:23.465Z,21.40
2022-08-17T07:46:24.106Z,21.40
2022-08-17T07:48:58.160Z,21.50
2022-08-17T07:51:29.223Z,21.50
2022-08-17T07:54:13.474Z,21.50
2022-08-17T07:56:45.837Z,21.60
2022-08-17T07:59:18.339Z,21.60
2022-08-17T08:02:17.597Z,21.70
2022-08-17T08:05:03.574Z,21.70
2022-08-17T08:07:39.226Z,21.70
2022-08-17T08:10:11.624Z,21.80
2022-08-17T08:12:42.493Z,21.90
2022-08-17T08:15:18.524Z,21.90
2022-08-17T08:17:52.335Z,21.90
2022-08-17T08:20:53.453Z,21.90
2022-08-17T08:23:22.376Z,22.00
2022-08-17T08:26:05.080Z,22.00
2022-08-17T08:28:43.393Z,22.00
2022-08-17T08:31:24.440Z,22.00
2022-08-17T08:34:05.069Z,22.10
2022-08-17T08:36:57.109Z,22.10
2022-08-17T08:39:42.804Z,22.10
2022-08-17T08:42:24.385Z,22.10
2022-08-17T08:45:04.565Z,22.10
2022-08-17T08:47:53.237Z,22.10
2022-08-17T08:50:37.997Z,22.10
2022-08-17T08:53:18.909Z,22.20
2022-08-17T08:55:52.962Z,22.20
2022-08-17T08:58:31.773Z,22.20
2022-08-17T09:01:19.375Z,22.20
2022-08-17T09:04:21.531Z,22.20
2022-08-17T09:07:04.985Z,22.20
2022-08-17T09:09:43.763Z,22.20
2022-08-17T09:12:21.319Z,22.30
2022-08-17T09:14:57.836Z,22.20
2022-08-17T09:17:36.085Z,22.30
2022-08-17T09:20:14.447Z,22.30
2022-08-17T09:23:04.003Z,22.30
2022-08-17T09:25:43.169Z,22.30
2022-08-17T09:28:20.105Z,22.30
2022-08-17T09:30:51.332Z,22.30
2022-08-17T09:33:26.088Z,22.30
2022-08-17T09:35:57.935Z,22.30
2022-08-17T09:38:39.414Z,22.40
2022-08-17T09:41:13.536Z,22.40
2022-08-17T09:43:45.715Z,22.40
2022-08-17T09:46:20.988Z,22.40
2022-08-17T09:48:57.339Z,22.40
2022-08-17T09:51:31.980Z,22.50
2022-08-17T09:54:34.878Z,22.50
2022-08-17T09:57:28.140Z,22.40
2022-08-17T10:00:01.539Z,22.50
2022-08-17T10:02:44.283Z,22.50
2022-08-17T10:05:17.985Z,22.50
2022-08-17T10:07:56.006Z,22.50
2022-08-17T10:10:29.620Z,22.50
2022-08-17T10:13:06.380Z,22.60
2022-08-17T10:15:49.594Z,22.60
2022-08-17T10:18:37.683Z,22.60
2022-08-17T10:21:26.410Z,22.60
2022-08-17T10:24:23.702Z,22.70
2022-08-17T10:26:57.538Z,22.70
2022-08-17T10:29:32.694Z,22.70
2022-08-17T10:32:26.373Z,22.80
2022-08-17T10:35:11.425Z,22.80
2022-08-17T10:38:04.938Z,22.90
2022-08-17T10:40:38.025Z,22.90
2022-08-17T10:43:29.235Z,22.90
2022-08-17T10:46:27.917Z,22.90
2022-08-17T10:49:27.257Z,23.00
2022-08-17T10:51:56.629Z,23.00
2022-08-17T10:55:08.693Z,23.00
2022-08-17T10:57:43.685Z,23.10
2022-08-17T11:00:44.573Z,23.10
2022-08-17T11:03:21.125Z,23.10
2022-08-17T11:05:58.798Z,23.10
2022-08-17T11:09:08.777Z,23.10
2022-08-17T11:12:13.135Z,23.10
2022-08-17T11:14:54.113Z,23.10
2022-08-17T11:17:49.780Z,23.20
2022-08-17T11:20:44.471Z,23.20
2022-08-17T11:23:29.354Z,23.20
2022-08-17T11:26:03.907Z,23.20
2022-08-17T11:28:35.865Z,23.20
2022-08-17T11:31:09.690Z,23.20
2022-08-17T11:33:59.196Z,23.20
2022-08-17T11:36:39.925Z,23.20
2022-08-17T11:39:29.863Z,23.20
2022-08-17T11:42:05.874Z,23.20
2022-08-17T11:44:45.768Z,23.20
2022-08-17T11:47:38.418Z,23.20
2022-08-17T11:50:54.878Z,23.20
2022-08-17T11:54:31.512Z,23.10
2022-08-17T11:57:00.437Z,23.10
2022-08-17T12:00:00.924Z,23.10
2022-08-17T12:02:38.672Z,23.10
2022-08-17T12:05:32.286Z,23.10
2022-08-17T12:08:12.786Z,23.10
2022-08-17T12:10:53.698Z,23.00
2022-08-17T12:13:27.451Z,23.00
2022-08-17T12:16:07.227Z,23.00
2022-08-17T12:18:39.491Z,23.00
2022-08-17T12:21:29.934Z,23.00
2022-08-17T12:24:06.582Z,23.00
2022-08-17T12:26:37.017Z,22.90
2022-08-17T12:29:18.339Z,22.90
2022-08-17T12:32:02.072Z,22.90
2022-08-17T12:34:35.917Z,22.90
2022-08-17T12:37:07.500Z,22.90
2022-08-17T12:39:35.688Z,22.90
2022-08-17T12:42:04.598Z,22.90
2022-08-17T12:44:35.975Z,22.80
2022-08-17T12:47:21.794Z,22.80
2022-08-17T12:49:52.217Z,22.80
2022-08-17T12:52:25.004Z,22.70
2022-08-17T12:54:56.811Z,22.70
2022-08-17T12:57:27.666Z,22.70
2022-08-17T13:00:01.374Z,22.70
2022-08-17T13:02:38.549Z,22.60
2022-08-17T13:05:08.651Z,22.70
2022-08-17T13:07:43.195Z,22.60
2022-08-17T13:10:21.465Z,22.60
2022-08-17T13:12:50.949Z,22.60
2022-08-17T13:15:24.497Z,22.60
2022-08-17T13:18:06.059Z,22.60
2022-08-17T13:20:36.146Z,22.50
2022-08-17T13:23:12.541Z,22.50
2022-08-17T13:25:40.730Z,22.50
2022-08-17T13:28:35.616Z,22.50
2022-08-17T13:31:44.040Z,22.50
2022-08-17T13:34:41.133Z,22.50
2022-08-17T13:37:30.166Z,22.50
2022-08-17T13:40:00.573Z,22.50
2022-08-17T13:42:50.243Z,22.50
2022-08-17T13:45:38.977Z,22.50
2022-08-17T13:48:13.875Z,22.50
2022-08-17T13:50:45.641Z,22.50
2022-08-17T13:53:18.287Z,22.50
2022-08-17T13:55:51.488Z,22.50
2022-08-17T13:58:27.373Z,22.50
2022-08-17T14:00:56.266Z,22.50
2022-08-17T14:03:26.072Z,22.50
2022-08-17T14:05:54.246Z,22.50
2022-08-17T14:08:22.284Z,22.50
2022-08-17T14:10:58.772Z,22.50
2022-08-17T14:13:26.717Z,22.60
2022-08-17T14:15:56.517Z,22.60
2022-08-17T14:18:35.679Z,22.60
2022-08-17T14:21:14.585Z,22.60
2022-08-17T14:23:48.997Z,22.60
2022-08-17T14:26:23.275Z,22.60
2022-08-17T14:28:54.683Z,22.60
2022-08-17T14:31:24.946Z,22.70
2022-08-17T14:33:55.277Z,22.70
2022-08-17T14:36:23.191Z,22.70
2022-08-17T14:38:51.100Z,22.70
2022-08-17T14:41:22.153Z,22.80
2022-08-17T14:43:51.322Z,22.80
2022-08-17T14:46:19.276Z,22.90
2022-08-17T14:48:47.259Z,22.90
2022-08-17T14:51:17.032Z,22.90
2022-08-17T14:53:45.811Z,22.90
2022-08-17T14:56:14.328Z,23.00
2022-08-17T14:58:42.618Z,23.00
2022-08-17T15:01:11.846Z,23.00
2022-08-17T15:03:40.897Z,23.10
2022-08-17T15:06:11.160Z,23.10
2022-08-17T15:08:41.797Z,23.10
2022-08-17T15:11:14.410Z,23.10
2022-08-17T15:13:52.387Z,23.10
2022-08-17T15:16:21.523Z,23.10
2022-08-17T15:18:50.179Z,23.20
2022-08-17T15:21:18.267Z,23.20
2022-08-17T15:23:47.794Z,23.20
2022-08-17T15:26:16.737Z,23.20
2022-08-17T15:28:44.694Z,23.20
2022-08-17T15:31:31.908Z,23.20
2022-08-17T15:34:00.902Z,23.20
2022-08-17T15:36:28.857Z,23.20
2022-08-17T15:38:58.908Z,23.20
2022-08-17T15:41:28.159Z,23.20
2022-08-17T15:43:56.905Z,23.20
2022-08-17T15:46:26.544Z,23.20
2022-08-17T15:48:58.203Z,23.20
2022-08-17T15:51:27.973Z,23.20
2022-08-17T15:53:59.479Z,23.20
2022-08-17T15:56:32.690Z,23.20
2022-08-17T15:59:01.989Z,23.20
2022-08-17T16:03:01.250Z,23.20
2022-08-17T16:04:29.747Z,23.20
2022-08-17T16:06:58.711Z,23.20
2022-08-17T16:09:27.994Z,23.10
2022-08-17T16:11:56.577Z,23.10
2022-08-17T16:14:33.768Z,23.10
2022-08-17T16:17:03.406Z,23.10
2022-08-17T16:19:32.446Z,23.10
2022-08-17T16:22:00.725Z,23.10
2022-08-17T16:24:30.140Z,23.10
2022-08-17T16:26:58.088Z,23.00
2022-08-17T16:29:26.137Z,23.00
2022-08-17T16:31:54.520Z,23.00
2022-08-17T16:34:22.471Z,23.00
2022-08-17T16:36:55.182Z,23.00
2022-08-17T16:39:26.143Z,22.90
2022-08-17T16:41:56.026Z,22.90
2022-08-17T16:44:25.572Z,22.90
2022-08-17T16:46:53.491Z,22.90
2022-08-17T16:49:32.446Z,22.90
2022-08-17T16:52:06.348Z,22.80
2022-08-17T16:54:35.389Z,22.80
2022-08-17T16:57:05.530Z,22.80
2022-08-17T16:59:41.018Z,22.80
2022-08-17T17:02:14.319Z,22.80
2022-08-17T17:04:49.061Z,22.80
2022-08-17T17:07:38.990Z,22.70
2022-08-17T17:10:10.884Z,22.70
2022-08-17T17:13:02.489Z,22.70
2022-08-17T17:15:39.462Z,22.70
2022-08-17T17:18:12.611Z,22.60
2022-08-17T17:20:48.632Z,22.60
2022-08-17T17:23:29.090Z,22.60
2022-08-17T17:26:00.641Z,22.50
2022-08-17T17:28:38.267Z,22.50
2022-08-17T17:31:14.136Z,22.50
2022-08-17T17:33:48.254Z,22.40
2022-08-17T17:36:36.350Z,22.40
2022-08-17T17:39:07.081Z,22.40
2022-08-17T17:41:41.445Z,22.40
2022-08-17T17:44:15.220Z,22.40
2022-08-17T17:46:52.484Z,22.30
2022-08-17T17:49:20.633Z,22.30
2022-08-17T17:52:08.055Z,22.30
2022-08-17T17:54:53.982Z,22.30
2022-08-17T17:57:35.849Z,22.30
2022-08-17T18:00:11.058Z,22.30
2022-08-17T18:02:51.511Z,22.20
2022-08-17T18:05:44.496Z,22.20
2022-08-17T18:08:34.026Z,22.20
2022-08-17T18:11:24.231Z,22.20
2022-08-17T18:14:06.021Z,22.20
2022-08-17T18:16:36.893Z,22.10
2022-08-17T18:19:06.098Z,22.10
2022-08-17T18:21:38.606Z,22.10
2022-08-17T18:24:08.582Z,22.10
2022-08-17T18:26:40.102Z,22.00
2022-08-17T18:29:35.813Z,22.00
2022-08-17T18:32:35.595Z,22.00
2022-08-17T18:35:35.605Z,22.00
2022-08-17T18:38:23.133Z,22.00
2022-08-17T18:41:03.474Z,21.90
2022-08-17T18:43:44.265Z,21.90
2022-08-17T18:46:28.947Z,21.90
2022-08-17T18:49:00.300Z,21.90
2022-08-17T18:51:42.181Z,21.80
2022-08-17T18:54:18.895Z,21.80
2022-08-17T18:56:52.059Z,21.80
2022-08-17T18:59:28.778Z,21.80
2022-08-17T19:02:32.473Z,21.80
2022-08-17T19:05:08.986Z,21.70
2022-08-17T19:07:40.629Z,21.70
2022-08-17T19:10:17.339Z,21.70
2022-08-17T19:12:48.977Z,21.70
2022-08-17T19:15:21.686Z,21.70
2022-08-17T19:17:56.574Z,21.60
2022-08-17T19:20:31.755Z,21.60
2022-08-17T19:23:17.640Z,21.60
2022-08-17T19:25:50.166Z,21.50
2022-08-17T19:28:25.707Z,21.50
2022-08-17T19:30:58.100Z,21.50
2022-08-17T19:33:27.181Z,21.50
2022-08-17T19:36:01.857Z,21.50
2022-08-17T19:38:44.970Z,21.50
2022-08-17T19:41:22.763Z,21.50
2022-08-17T19:44:14.010Z,21.40
2022-08-17T19:46:56.209Z,21.40
2022-08-17T19:49:41.239Z,21.40
2022-08-17T19:52:24.116Z,21.40
2022-08-17T19:55:00.871Z,21.40
2022-08-17T19:57:42.483Z,21.40
2022-08-17T20:00:13.364Z,21.30
2022-08-17T20:02:50.507Z,21.30
2022-08-17T20:05:22.324Z,21.30
2022-08-17T20:07:56.232Z,21.30
2022-08-17T20:10:39.283Z,21.30
2022-08-17T20:13:11.557Z,21.30
2022-08-17T20:15:43.085Z,21.30
2022-08-17T20:18:20.962Z,21.20
2022-08-17T20:20:56.547Z,21.20
2022-08-17T20:23:43.138Z,21.20
2022-08-17T20:26:19.933Z,21.20
2022-08-17T20:29:10.981Z,21.20
2022-08-17T20:31:48.952Z,21.20
2022-08-17T20:34:37.183Z,21.20
2022-08-17T20:37:09.320Z,21.20
2022-08-17T20:39:40.624Z,21.10
2022-08-17T20:42:31.697Z,21.10
2022-08-17T20:45:02.940Z,21.10
2022-08-17T20:47:34.993Z,21.10
2022-08-17T20:50:07.763Z,21.00
2022-08-17T20:52:53.881Z,21.10
2022-08-17T20:55:55.810Z,21.00
2022-08-17T20:58:47.752Z,21.00
2022-08-17T21:01:35.024Z,21.00
2022-08-17T21:04:08.343Z,21.00
2022-08-17T21:07:17.227Z,21.00
2022-08-17T21:09:47.243Z,20.90
2022-08-17T21:12:44.349Z,20.90
2022-08-17T21:15:29.471Z,20.90
2022-08-17T21:18:07.478Z,20.90
2022-08-17T21:20:42.770Z,20.90
2022-08-17T21:23:34.338Z,20.90
2022-08-17T21:26:18.477Z,20.90
2022-08-17T21:29:29.659Z,20.90
2022-08-17T21:32:18.919Z,20.90
2022-08-17T21:35:23.285Z,20.80
2022-08-17T21:37:54.821Z,20.80
2022-08-17T21:40:26.685Z,20.80
2022-08-17T21:42:59.664Z,20.80
2022-08-17T21:45:31.453Z,20.80
2022-08-17T21:48:14.835Z,20.80
2022-08-17T21:50:45.546Z,20.80
2022-08-17T21:53:19.378Z,20.80
2022-08-17T21:55:51.350Z,20.80
2022-08-17T21:58:30.379Z,20.80
2022-08-17T22:01:19.127Z,20.80
2022-08-17T22:03:57.451Z,20.70
2022-08-17T22:06:28.616Z,20.70
2022-08-17T22:09:12.634Z,20.70
2022-08-17T22:12:06.789Z,20.70
2022-08-17T22:14:53.211Z,20.70
2022-08-17T22:17:24.139Z,20.70
2022-08-17T22:19:56.270Z,20.70
2022-08-17T22:22:34.331Z,20.70
2022-08-17T22:25:04.671Z,20.70
2022-08-17T22:27:55.862Z,20.60
2022-08-17T22:30:37.602Z,20.60
2022-08-17T22:33:39.618Z,20.60
2022-08-17T22:36:30.861Z,20.60
2022-08-17T22:39:01.027Z,20.60
2022-08-17T22:41:42.282Z,20.60
2022-08-17T22:44:23.060Z,20.60
2022-08-17T22:47:22.189Z,20.60
2022-08-17T22:49:57.556Z,20.60
2022-08-17T22:52:32.983Z,20.60
2022-08-17T22:55:23.737Z,20.60
2022-08-17T22:58:09.610Z,20.60
2022-08-17T23:00:41.013Z,20.50
2022-08-17T23:03:13.989Z,20.50
2022-08-17T23:05:45.734Z,20.50
2022-08-17T23:08:21.075Z,20.50
2022-08-17T23:10:50.233Z,20.50
2022-08-17T23:13:18.237Z,20.50
2022-08-17T23:15:52.778Z,20.50
2022-08-17T23:18:20.739Z,20.50
2022-08-17T23:20:48.678Z,20.50
2022-08-17T23:23:23.376Z,20.40
2022-08-17T23:25:51.731Z,20.40
2022-08-17T23:28:19.952Z,20.40
2022-08-17T23:30:48.292Z,20.40
2022-08-17T23:33:21.260Z,20.40
2022-08-17T23:35:49.294Z,20.40
2022-08-17T23:38:18.579Z,20.40
2022-08-17T23:40:46.611Z,20.40
2022-08-17T23:43:24.154Z,20.40
2022-08-17T23:45:54.548Z,20.30
2022-08-17T23:48:32.666Z,20.30
2022-08-17T23:51:08.646Z,20.30
2022-08-17T23:53:41.899Z,20.30
2022-08-17T23:56:11.128Z,20.30
2022-08-17T23:58:42.978Z,20.20
